Time;durP1;ratioP1;P1;durP2;ratioP2;P2;SDS_P1;SDS_P2;PMS_P1;PMS_P2;Temp;Humidity;BMP_temperature;BMP_pressure;BME280_temperature;BME280_humidity;BME280_pressure;Samples;Min_cycle;Max_cycle;Signal;HPM_P1;HPM_P2
2023/01/04 00:00:45;;;;;;;12.20;4.87;;;;;;;3.27;100.00;101260.81;4997521;28;20561;-61
2023/01/04 00:03:10;;;;;;;10.23;5.30;;;;;;;3.27;100.00;101258.28;5043949;28;20200;-60
2023/01/04 00:05:35;;;;;;;7.20;5.00;;;;;;;3.44;100.00;101258.19;5046862;28;20262;-60
2023/01/04 00:08:01;;;;;;;8.17;4.47;;;;;;;3.50;100.00;101254.78;5034594;28;20208;-60
2023/01/04 00:10:26;;;;;;;6.87;4.23;;;;;;;3.62;100.00;101253.84;5028806;28;20251;-60
2023/01/04 00:12:51;;;;;;;4.83;4.10;;;;;;;3.81;100.00;101250.31;5065512;28;20636;-60
2023/01/04 00:15:16;;;;;;;6.93;4.23;;;;;;;3.84;100.00;101249.44;5045255;28;20173;-60
2023/01/04 00:17:42;;;;;;;5.43;3.70;;;;;;;3.94;100.00;101242.56;5048790;28;20187;-59
2023/01/04 00:20:09;;;;;;;5.30;3.67;;;;;;;4.12;100.00;101241.53;5044048;28;20208;-60
2023/01/04 00:22:34;;;;;;;6.73;3.83;;;;;;;4.18;100.00;101244.03;5050504;28;20231;-60
2023/01/04 00:25:00;;;;;;;9.57;3.63;;;;;;;4.14;100.00;101243.22;5051772;28;20283;-60
2023/01/04 00:27:25;;;;;;;9.03;4.20;;;;;;;4.13;100.00;101244.09;5051435;28;20197;-60
2023/01/04 00:29:50;;;;;;;4.70;4.20;;;;;;;4.15;100.00;101234.72;5052816;28;20181;-63
2023/01/04 00:32:15;;;;;;;8.50;4.30;;;;;;;4.29;100.00;101232.06;5044782;28;20213;-60
2023/01/04 00:34:41;;;;;;;5.10;3.77;;;;;;;4.16;100.00;101226.22;5053357;28;20259;-60
2023/01/04 00:37:06;;;;;;;6.60;3.77;;;;;;;4.23;100.00;101215.97;5050634;28;20205;-60
2023/01/04 00:39:31;;;;;;;8.67;4.37;;;;;;;4.20;100.00;101214.31;5053316;28;20665;-60
2023/01/04 00:42:03;;;;;;;7.03;3.93;;;;;;;4.35;100.00;101223.47;5055943;28;20244;-60
2023/01/04 00:44:30;;;;;;;5.20;3.70;;;;;;;4.36;100.00;101207.34;5053197;28;20181;-60
2023/01/04 00:46:56;;;;;;;7.17;3.87;;;;;;;4.39;100.00;101216.66;5052570;28;20225;-59
2023/01/04 00:49:21;;;;;;;8.10;3.90;;;;;;;4.55;100.00;101212.22;5053426;28;20698;-60
2023/01/04 00:51:47;;;;;;;6.53;4.10;;;;;;;4.60;100.00;101201.13;5056207;28;20315;-59
2023/01/04 00:54:14;;;;;;;4.50;3.60;;;;;;;4.65;100.00;101204.47;5054996;28;20235;-60
2023/01/04 00:56:39;;;;;;;6.07;3.20;;;;;;;4.60;100.00;101202.81;5034197;28;20583;-60
2023/01/04 00:59:04;;;;;;;8.63;3.93;;;;;;;4.59;100.00;101204.53;5036281;28;20649;-60
2023/01/04 01:01:32;;;;;;;4.87;3.43;;;;;;;4.75;100.00;101206.88;5034721;28;20640;-60
2023/01/04 01:04:00;;;;;;;5.43;3.70;;;;;;;4.86;100.00;101202.50;5032805;28;20193;-59
2023/01/04 01:06:27;;;;;;;8.27;3.70;;;;;;;4.91;100.00;101202.44;5040413;28;20205;-60
2023/01/04 01:08:52;;;;;;;6.20;3.97;;;;;;;5.01;100.00;101192.09;5034497;28;20177;-60
2023/01/04 01:11:18;;;;;;;4.03;3.13;;;;;;;5.06;100.00;101202.25;5052475;28;20246;-60
2023/01/04 01:13:44;;;;;;;5.77;3.53;;;;;;;5.16;100.00;101196.13;5023620;28;20183;-60
2023/01/04 01:16:12;;;;;;;5.23;3.60;;;;;;;5.11;100.00;101191.97;5032328;28;20641;-60
2023/01/04 01:18:39;;;;;;;7.40;4.20;;;;;;;5.09;100.00;101198.81;5032926;28;20232;-59
2023/01/04 01:21:10;;;;;;;7.07;3.33;;;;;;;5.14;100.00;101190.22;5031105;28;20237;-60
2023/01/04 01:23:36;;;;;;;5.43;3.50;;;;;;;5.12;100.00;101184.31;5039743;28;20233;-59
2023/01/04 01:26:03;;;;;;;5.90;3.90;;;;;;;4.77;100.00;101180.50;5051522;28;20170;-60
2023/01/04 01:28:29;;;;;;;6.17;3.93;;;;;;;4.87;100.00;101181.22;5034033;28;20188;-60
2023/01/04 01:30:54;;;;;;;5.00;3.37;;;;;;;4.94;100.00;101190.50;5041217;28;20547;-60
2023/01/04 01:33:23;;;;;;;7.40;3.90;;;;;;;4.85;100.00;101178.72;5061013;28;20643;-60
2023/01/04 01:35:48;;;;;;;8.20;4.10;;;;;;;4.84;100.00;101174.47;5045080;28;20708;-61
2023/01/04 01:38:13;;;;;;;4.93;4.10;;;;;;;4.87;100.00;101172.75;5050449;28;20189;-60
2023/01/04 01:40:42;;;;;;;7.03;4.27;;;;;;;4.78;100.00;101178.81;5029087;28;20600;-60
2023/01/04 01:43:16;;;;;;;6.53;4.00;;;;;;;4.85;100.00;101176.16;5039605;28;20180;-59
2023/01/04 01:45:41;;;;;;;5.03;3.70;;;;;;;4.81;100.00;101164.34;5046331;28;20180;-59
2023/01/04 01:48:14;;;;;;;4.40;4.00;;;;;;;4.72;100.00;101174.63;5051540;28;20212;-59
2023/01/04 01:51:01;;;;;;;5.17;4.47;;;;;;;4.48;100.00;101178.34;5028401;28;20589;-60
2023/01/04 01:53:29;;;;;;;6.80;4.70;;;;;;;4.68;100.00;101167.91;5058946;28;20201;-59
2023/01/04 01:55:56;;;;;;;7.40;5.10;;;;;;;4.63;100.00;101164.56;5048660;28;20276;-60
2023/01/04 01:58:30;;;;;;;9.60;4.97;;;;;;;4.64;100.00;101156.91;5022661;28;20652;-59
2023/01/04 02:00:56;;;;;;;6.77;5.57;;;;;;;4.71;100.00;101151.72;5029128;28;20620;-59
2023/01/04 02:03:25;;;;;;;9.97;4.80;;;;;;;4.75;100.00;101149.13;5040674;28;20316;-60
2023/01/04 02:05:54;;;;;;;9.43;5.20;;;;;;;4.81;100.00;101151.59;5030087;28;20184;-63
2023/01/04 02:08:22;;;;;;;9.63;5.17;;;;;;;4.93;100.00;101145.47;5014427;28;20186;-60
2023/01/04 02:10:47;;;;;;;8.50;4.47;;;;;;;4.91;100.00;101147.22;5026658;28;20681;-60
2023/01/04 02:13:18;;;;;;;8.90;4.70;;;;;;;4.94;100.00;101146.31;5041817;28;20186;-60
2023/01/04 02:15:58;;;;;;;6.20;5.10;;;;;;;4.89;100.00;101140.41;5019275;28;20170;-60
2023/01/04 02:18:32;;;;;;;9.00;4.90;;;;;;;5.00;100.00;101131.75;5014188;28;20235;-61
2023/01/04 02:21:12;;;;;;;6.90;4.20;;;;;;;4.98;100.00;101127.53;5037203;28;20322;-59
2023/01/04 02:24:10;;;;;;;7.47;5.00;;;;;;;4.89;100.00;101127.66;5031985;28;20266;-60
2023/01/04 02:26:44;;;;;;;6.67;5.10;;;;;;;4.92;100.00;101120.81;5014230;28;20202;-60
2023/01/04 02:29:33;;;;;;;6.67;5.43;;;;;;;4.85;100.00;101109.06;5014510;28;20175;-60
2023/01/04 02:32:53;;;;;;;5.87;5.27;;;;;;;4.72;100.00;101105.81;5036946;28;20323;-59
2023/01/04 02:35:34;;;;;;;7.60;5.33;;;;;;;4.66;100.00;101101.66;5013345;28;20196;-60
2023/01/04 02:38:25;;;;;;;6.87;5.13;;;;;;;4.74;100.00;101101.53;5012970;28;20617;-61
2023/01/04 02:41:11;;;;;;;6.50;4.97;;;;;;;4.81;100.00;101098.06;5019653;28;20293;-60
2023/01/04 02:46:52;;;;;;;5.87;5.10;;;;;;;5.03;100.00;101096.88;5018965;28;20704;-60
2023/01/04 02:52:01;;;;;;;5.70;5.10;;;;;;;4.98;100.00;101082.47;5019080;28;20236;-59
2023/01/04 02:54:31;;;;;;;7.17;4.40;;;;;;;4.96;100.00;101070.63;5031450;28;20191;-60
2023/01/04 02:57:30;;;;;;;6.73;5.37;;;;;;;4.90;100.00;101075.81;5029967;28;20195;-60
2023/01/04 03:00:04;;;;;;;5.87;4.30;;;;;;;4.92;100.00;101074.09;5027597;28;20619;-59
2023/01/04 03:06:16;;;;;;;6.60;4.87;;;;;;;4.96;100.00;101061.28;5024350;28;20225;-60
2023/01/04 03:09:00;;;;;;;5.77;4.20;;;;;;;5.10;100.00;101061.06;5035758;28;20652;-60
2023/01/04 03:14:47;;;;;;;6.90;5.37;;;;;;;5.10;100.00;101055.94;5049503;28;20196;-59
2023/01/04 03:17:16;;;;;;;5.33;4.63;;;;;;;5.38;100.00;101058.03;5041216;28;20238;-60
2023/01/04 03:19:55;;;;;;;8.00;5.20;;;;;;;5.15;100.00;101058.44;5056086;28;20190;-60
2023/01/04 03:37:13;;;;;;;8.60;4.87;;;;;;;5.33;100.00;101039.41;5039346;28;20199;-60
2023/01/04 03:48:33;;;;;;;7.27;5.07;;;;;;;5.36;100.00;101024.06;5041512;28;20531;-60
2023/01/04 03:51:08;;;;;;;5.70;5.03;;;;;;;5.23;100.00;101020.03;5030658;28;20684;-60
2023/01/04 03:53:40;;;;;;;8.20;4.93;;;;;;;5.11;100.00;101011.72;5025266;28;20204;-59
2023/01/04 03:56:08;;;;;;;6.73;5.23;;;;;;;5.23;100.00;101007.28;5038773;28;20187;-60
2023/01/04 03:58:34;;;;;;;5.83;4.77;;;;;;;5.11;100.00;101001.53;5038817;28;20228;-59
2023/01/04 04:01:02;;;;;;;6.40;4.80;;;;;;;5.13;100.00;101004.03;5013873;28;20251;-60
2023/01/04 04:08:56;;;;;;;6.17;4.30;;;;;;;5.19;100.00;100992.91;5035265;28;20214;-59
2023/01/04 04:11:30;;;;;;;5.30;4.30;;;;;;;5.18;100.00;100989.50;5023697;28;20221;-59
2023/01/04 04:13:56;;;;;;;6.37;4.27;;;;;;;5.10;100.00;100981.16;5017207;28;20179;-60
2023/01/04 04:16:21;;;;;;;9.80;4.80;;;;;;;5.03;100.00;100980.41;5023799;28;20239;-59
2023/01/04 04:18:47;;;;;;;5.97;4.87;;;;;;;5.13;100.00;100979.38;5035114;28;20216;-59
2023/01/04 04:21:12;;;;;;;7.10;4.57;;;;;;;5.08;100.00;100980.34;5016515;28;20575;-59
2023/01/04 04:23:38;;;;;;;5.17;4.33;;;;;;;4.99;100.00;100971.13;5042607;28;20224;-59
2023/01/04 04:26:04;;;;;;;8.17;4.80;;;;;;;4.96;100.00;100978.81;5034852;28;20605;-59
2023/01/04 04:28:29;;;;;;;5.83;4.40;;;;;;;4.96;100.00;100971.19;5035621;28;20247;-59
2023/01/04 04:30:54;;;;;;;6.47;4.33;;;;;;;4.98;100.00;100960.09;5031714;28;20311;-60
2023/01/04 04:33:19;;;;;;;8.33;4.20;;;;;;;4.98;100.00;100965.19;5044240;28;20208;-60
2023/01/04 04:35:49;;;;;;;6.67;4.40;;;;;;;5.04;100.00;100966.78;5034757;28;20230;-59
2023/01/04 04:38:14;;;;;;;7.43;4.70;;;;;;;5.12;100.00;100959.00;5035319;28;20193;-60
2023/01/04 04:43:23;;;;;;;9.00;4.00;;;;;;;5.26;100.00;100949.41;5042628;28;20212;-59
2023/01/04 04:45:48;;;;;;;6.47;4.30;;;;;;;5.23;100.00;100948.63;5034684;28;20219;-62
2023/01/04 04:48:14;;;;;;;5.27;4.23;;;;;;;5.17;100.00;100958.06;5033509;28;20247;-60
2023/01/04 04:50:39;;;;;;;7.10;4.20;;;;;;;5.19;100.00;100945.28;5029272;28;20235;-60
2023/01/04 04:53:04;;;;;;;7.27;4.63;;;;;;;5.22;100.00;100947.78;5045069;28;20192;-60
2023/01/04 04:55:29;;;;;;;6.17;4.17;;;;;;;5.26;100.00;100938.34;5016659;28;20182;-60
2023/01/04 04:57:55;;;;;;;7.93;5.03;;;;;;;5.40;100.00;100941.47;5033258;28;20246;-60
2023/01/04 05:00:20;;;;;;;4.77;4.23;;;;;;;5.26;100.00;100940.88;5007485;28;20170;-60
2023/01/04 05:02:45;;;;;;;6.40;4.07;;;;;;;5.12;100.00;100931.81;5053333;28;20210;-60
2023/01/04 05:05:11;;;;;;;5.07;4.57;;;;;;;5.18;100.00;100923.19;5052310;28;20202;-59
2023/01/04 05:07:36;;;;;;;6.20;4.43;;;;;;;5.16;100.00;100915.56;5032865;28;20202;-59
2023/01/04 05:10:05;;;;;;;5.33;4.30;;;;;;;5.13;100.00;100915.59;5033253;28;20181;-61
2023/01/04 05:13:01;;;;;;;6.00;4.53;;;;;;;5.25;100.00;100914.56;5038938;28;20219;-60
2023/01/04 05:15:35;;;;;;;8.30;4.20;;;;;;;5.32;100.00;100910.16;5015488;28;20203;-60
2023/01/04 05:18:01;;;;;;;6.13;4.13;;;;;;;5.29;100.00;100910.22;5032424;28;20187;-59
2023/01/04 05:20:26;;;;;;;7.60;5.00;;;;;;;5.27;100.00;100910.28;5025972;28;20623;-60
2023/01/04 05:22:51;;;;;;;7.17;4.97;;;;;;;5.17;100.00;100909.59;5045703;28;20213;-59
2023/01/04 05:25:17;;;;;;;4.53;4.13;;;;;;;5.15;100.00;100903.69;5038374;28;20220;-59
2023/01/04 05:27:42;;;;;;;6.40;4.50;;;;;;;5.09;100.00;100901.25;5051819;28;20228;-59
2023/01/04 05:32:55;;;;;;;5.03;4.47;;;;;;;5.09;100.00;100888.50;5044938;28;20326;-59
2023/01/04 05:35:20;;;;;;;7.77;4.63;;;;;;;5.13;100.00;100894.38;5032770;28;20261;-59
2023/01/04 05:37:45;;;;;;;5.73;4.83;;;;;;;5.24;100.00;100889.06;5032056;28;20187;-60
2023/01/04 05:40:10;;;;;;;4.77;4.33;;;;;;;5.23;100.00;100890.78;5023422;28;20573;-60
2023/01/04 05:42:36;;;;;;;4.13;3.73;;;;;;;5.19;100.00;100888.34;5029962;28;20196;-59
2023/01/04 05:45:01;;;;;;;6.00;4.33;;;;;;;5.23;100.00;100892.50;5032704;28;20648;-60
2023/01/04 05:47:28;;;;;;;7.43;4.53;;;;;;;5.28;100.00;100898.34;5032197;28;20216;-60
2023/01/04 05:49:53;;;;;;;5.77;4.30;;;;;;;5.24;100.00;100894.19;5040006;28;20195;-60
2023/01/04 05:52:22;;;;;;;5.33;4.47;;;;;;;5.23;100.00;100887.38;5039835;28;20229;-59
2023/01/04 05:54:47;;;;;;;6.87;4.53;;;;;;;5.19;100.00;100876.41;5051609;28;20257;-60
2023/01/04 05:57:12;;;;;;;7.33;4.20;;;;;;;5.20;100.00;100869.59;5049118;28;20270;-60
2023/01/04 05:59:38;;;;;;;6.43;4.17;;;;;;;5.23;100.00;100867.81;5040552;28;20266;-59
2023/01/04 06:02:04;;;;;;;8.73;5.33;;;;;;;5.19;100.00;100871.31;5043543;28;20229;-60
2023/01/04 06:04:29;;;;;;;7.00;5.57;;;;;;;5.39;100.00;100878.53;5051504;28;20624;-60
2023/01/04 06:06:55;;;;;;;7.67;5.10;;;;;;;5.37;100.00;100872.66;5048273;28;20230;-60
2023/01/04 06:09:20;;;;;;;6.43;5.20;;;;;;;5.41;100.00;100878.50;5050477;28;20190;-60
2023/01/04 06:11:45;;;;;;;8.50;5.90;;;;;;;5.46;100.00;100886.94;5051928;28;20235;-60
2023/01/04 06:14:10;;;;;;;6.97;5.63;;;;;;;5.40;100.00;100889.63;5029302;28;20182;-59
2023/01/04 06:16:36;;;;;;;6.43;5.73;;;;;;;5.56;100.00;100898.63;5030594;28;20640;-60
2023/01/04 06:19:02;;;;;;;6.07;5.30;;;;;;;5.57;100.00;100890.09;5050400;28;20183;-60
2023/01/04 06:21:28;;;;;;;7.87;5.60;;;;;;;5.68;100.00;100889.03;5050173;28;20301;-60
2023/01/04 06:23:53;;;;;;;6.37;5.50;;;;;;;5.93;100.00;100886.78;5054487;28;20304;-59
2023/01/04 06:26:20;;;;;;;7.60;4.20;;;;;;;6.01;100.00;100873.88;5048214;28;20557;-61
2023/01/04 06:28:45;;;;;;;5.57;3.50;;;;;;;6.04;100.00;100863.56;5035927;28;20189;-60
2023/01/04 06:31:11;;;;;;;7.13;3.27;;;;;;;6.35;100.00;100855.16;5022000;28;20300;-60
2023/01/04 06:33:38;;;;;;;5.40;3.27;;;;;;;6.48;100.00;100860.81;5057283;28;20183;-59
2023/01/04 06:36:04;;;;;;;3.90;2.93;;;;;;;6.51;100.00;100864.16;5049999;28;20187;-59
2023/01/04 06:38:31;;;;;;;5.47;3.13;;;;;;;6.72;100.00;100851.66;5048791;28;20191;-60
2023/01/04 06:40:56;;;;;;;3.10;2.80;;;;;;;6.62;100.00;100841.69;5046546;28;20236;-59
2023/01/04 06:43:21;;;;;;;4.43;2.73;;;;;;;6.54;100.00;100841.03;5058595;28;20185;-60
2023/01/04 06:45:47;;;;;;;3.23;2.93;;;;;;;6.69;100.00;100831.31;5051004;28;20239;-60
2023/01/04 06:48:12;;;;;;;5.03;3.17;;;;;;;6.78;100.00;100841.28;5049984;28;20291;-60
2023/01/04 06:50:37;;;;;;;4.50;2.97;;;;;;;6.84;100.00;100832.63;5045341;28;20224;-59
2023/01/04 06:53:03;;;;;;;4.20;3.50;;;;;;;6.76;100.00;100828.53;5044360;28;20267;-59
2023/01/04 06:55:28;;;;;;;4.83;3.00;;;;;;;6.75;100.00;100836.25;5050892;28;20658;-59
2023/01/04 06:57:54;;;;;;;4.93;2.97;;;;;;;6.88;100.00;100823.97;5043100;28;20636;-59
2023/01/04 07:00:20;;;;;;;4.13;2.70;;;;;;;6.93;100.00;100822.13;5023401;28;20193;-61
2023/01/04 07:02:45;;;;;;;2.53;2.27;;;;;;;6.87;100.00;100806.94;5051018;28;20185;-59
2023/01/04 07:05:11;;;;;;;3.30;2.77;;;;;;;6.81;100.00;100810.53;5037426;28;20213;-60
2023/01/04 07:07:36;;;;;;;4.13;2.60;;;;;;;6.80;100.00;100803.72;5046023;28;20289;-60
2023/01/04 07:10:02;;;;;;;3.70;2.70;;;;;;;6.90;100.00;100794.91;5031299;28;20330;-60
2023/01/04 07:12:27;;;;;;;3.10;2.03;;;;;;;6.95;100.00;100795.63;5022357;28;20229;-60
2023/01/04 07:14:52;;;;;;;3.43;2.07;;;;;;;6.98;100.00;100788.75;5049592;28;20180;-60
2023/01/04 07:17:18;;;;;;;2.47;2.10;;;;;;;6.93;100.00;100776.94;5046930;28;20174;-60
2023/01/04 07:19:43;;;;;;;3.13;2.30;;;;;;;6.83;100.00;100778.06;5030448;28;20504;-60
2023/01/04 07:22:09;;;;;;;2.30;2.00;;;;;;;6.98;100.00;100778.50;5049975;28;20286;-60
2023/01/04 07:24:34;;;;;;;3.27;1.87;;;;;;;7.00;100.00;100762.22;5050159;28;20635;-60
2023/01/04 07:27:00;;;;;;;3.97;2.00;;;;;;;7.02;100.00;100769.84;5047821;28;20258;-60
2023/01/04 07:29:26;;;;;;;2.60;2.37;;;;;;;7.10;100.00;100765.38;5048775;28;20327;-60
2023/01/04 07:31:52;;;;;;;2.93;2.07;;;;;;;7.18;100.00;100745.50;5048408;28;20212;-60
2023/01/04 07:34:20;;;;;;;2.43;2.00;;;;;;;7.14;100.00;100761.81;5047589;28;20174;-60
2023/01/04 07:36:46;;;;;;;2.30;2.00;;;;;;;7.08;100.00;100764.56;5026725;28;20181;-61
2023/01/04 07:39:12;;;;;;;2.37;2.17;;;;;;;7.06;100.00;100763.78;5046782;28;20185;-60
2023/01/04 07:41:39;;;;;;;2.33;1.80;;;;;;;7.16;100.00;100762.63;5050586;28;20571;-60
2023/01/04 07:44:04;;;;;;;2.10;1.83;;;;;;;7.03;100.00;100767.28;5048938;28;20204;-60
2023/01/04 07:46:31;;;;;;;1.60;1.50;;;;;;;7.15;100.00;100766.06;5048563;28;20201;-60
2023/01/04 07:48:56;;;;;;;4.03;2.23;;;;;;;7.22;100.00;100764.19;5048681;28;20185;-60
2023/01/04 07:51:21;;;;;;;2.33;1.77;;;;;;;7.07;100.00;100771.41;5049585;28;20724;-60
2023/01/04 07:53:47;;;;;;;2.87;1.73;;;;;;;7.24;100.00;100775.19;5055754;28;20177;-60
2023/01/04 07:56:12;;;;;;;2.47;1.70;;;;;;;7.22;100.00;100785.47;5043620;28;20530;-59
2023/01/04 07:58:38;;;;;;;2.10;1.70;;;;;;;7.26;100.00;100778.53;5035788;28;20186;-56
2023/01/04 08:01:25;;;;;;;3.03;1.97;;;;;;;7.35;100.00;100782.56;5021692;28;20219;-58
2023/01/04 08:03:50;;;;;;;5.70;2.33;;;;;;;7.40;100.00;100778.13;5034888;28;20210;-58
2023/01/04 08:06:17;;;;;;;2.43;1.97;;;;;;;7.25;100.00;100787.91;5034406;28;20675;-58
2023/01/04 08:08:43;;;;;;;2.80;2.30;;;;;;;7.40;100.00;100778.13;5034494;28;20196;-57
2023/01/04 08:11:17;;;;;;;3.93;1.80;;;;;;;7.43;100.00;100775.50;5042217;28;20227;-57
2023/01/04 08:13:43;;;;;;;2.20;1.63;;;;;;;7.56;100.00;100776.75;5055828;28;20626;-62
2023/01/04 08:16:18;;;;;;;2.93;1.60;;;;;;;7.55;100.00;100780.22;5029638;28;20270;-61
2023/01/04 08:18:43;;;;;;;2.83;1.97;;;;;;;7.54;100.00;100773.44;5009725;28;20169;-60
2023/01/04 08:21:09;;;;;;;2.67;1.93;;;;;;;7.52;100.00;100767.50;5050720;28;20224;-60
2023/01/04 08:23:36;;;;;;;1.67;1.57;;;;;;;7.56;100.00;100773.38;5051634;28;20312;-60
2023/01/04 08:26:06;;;;;;;2.40;1.70;;;;;;;7.61;100.00;100757.88;5049042;28;20178;-60
2023/01/04 08:28:32;;;;;;;2.43;1.87;;;;;;;7.56;100.00;100763.13;5044748;28;20198;-61
2023/01/04 08:31:02;;;;;;;2.90;1.70;;;;;;;7.60;100.00;100767.25;5027842;28;20277;-61
2023/01/04 08:33:27;;;;;;;3.97;1.83;;;;;;;7.62;100.00;100787.72;5032883;28;20208;-61
2023/01/04 08:35:52;;;;;;;3.33;2.43;;;;;;;7.61;100.00;100776.63;5036468;28;20181;-62
2023/01/04 08:38:17;;;;;;;3.17;2.10;;;;;;;7.55;100.00;100780.22;5036271;28;20699;-61
2023/01/04 08:40:43;;;;;;;3.80;1.90;;;;;;;7.49;100.00;100789.81;5033642;28;20248;-61
2023/01/04 08:43:08;;;;;;;2.53;2.00;;;;;;;7.57;100.00;100792.97;5046358;28;20701;-61
2023/01/04 08:45:33;;;;;;;2.90;2.00;;;;;;;7.63;100.00;100792.78;5038135;28;20188;-61
2023/01/04 08:47:58;;;;;;;2.43;1.70;;;;;;;7.62;100.00;100806.47;5035321;28;20208;-60
2023/01/04 08:50:24;;;;;;;2.73;2.10;;;;;;;7.61;100.00;100801.41;5029565;28;20240;-61
2023/01/04 08:52:49;;;;;;;3.03;1.97;;;;;;;7.47;100.00;100806.91;5048637;28;20285;-60
2023/01/04 08:55:15;;;;;;;4.00;2.10;;;;;;;7.51;100.00;100793.16;5037522;28;20198;-61
2023/01/04 08:57:41;;;;;;;2.73;1.90;;;;;;;7.66;100.00;100795.22;5040398;28;20193;-61
2023/01/04 09:00:08;;;;;;;2.23;1.87;;;;;;;7.71;100.00;100803.59;5041793;28;20272;-61
2023/01/04 09:02:33;;;;;;;1.63;1.53;;;;;;;7.68;100.00;100800.34;5048819;28;20178;-60
2023/01/04 09:05:01;;;;;;;2.00;1.80;;;;;;;7.82;100.00;100800.72;5023027;28;20246;-61
2023/01/04 09:07:30;;;;;;;2.90;1.70;;;;;;;7.79;100.00;100782.91;5033287;28;20202;-60
2023/01/04 09:09:56;;;;;;;3.10;1.70;;;;;;;7.88;100.00;100777.47;5033190;28;20308;-60
2023/01/04 09:12:21;;;;;;;2.97;2.17;;;;;;;7.80;100.00;100782.00;5023584;28;20685;-63
2023/01/04 09:14:47;;;;;;;3.73;2.03;;;;;;;7.92;100.00;100783.31;5052669;28;20657;-61
2023/01/04 09:17:12;;;;;;;2.67;1.67;;;;;;;8.00;100.00;100776.25;5049037;28;20185;-61
2023/01/04 09:19:37;;;;;;;2.00;1.53;;;;;;;8.04;100.00;100764.16;5035847;28;20205;-61
2023/01/04 09:22:03;;;;;;;3.13;2.00;;;;;;;8.08;100.00;100760.59;5038226;28;20255;-61
2023/01/04 09:24:32;;;;;;;1.93;1.40;;;;;;;8.05;100.00;100771.78;5015087;28;20222;-60
2023/01/04 09:26:57;;;;;;;2.30;1.57;;;;;;;8.19;100.00;100770.50;5032376;28;20194;-61
2023/01/04 09:29:23;;;;;;;4.73;1.80;;;;;;;8.21;100.00;100766.13;5032621;28;20236;-61
2023/01/04 09:31:48;;;;;;;2.13;1.60;;;;;;;8.20;100.00;100761.94;5036305;28;20283;-60
2023/01/04 09:34:14;;;;;;;4.33;1.93;;;;;;;8.19;100.00;100750.81;5016509;28;20182;-60
2023/01/04 09:36:39;;;;;;;2.03;1.50;;;;;;;8.16;100.00;100750.09;5032342;28;20182;-60
2023/01/04 09:39:04;;;;;;;2.07;1.50;;;;;;;8.21;100.00;100749.06;5033679;28;20222;-61
2023/01/04 09:41:34;;;;;;;2.53;1.70;;;;;;;8.42;100.00;100744.06;5036444;28;20223;-61
2023/01/04 09:44:02;;;;;;;2.20;1.70;;;;;;;8.48;100.00;100749.00;5043387;28;20196;-60
2023/01/04 09:46:35;;;;;;;1.77;1.60;;;;;;;8.35;100.00;100745.19;5033154;28;20287;-61
2023/01/04 09:49:23;;;;;;;2.87;1.80;;;;;;;8.32;100.00;100733.31;5051918;28;20653;-61
2023/01/04 09:52:08;;;;;;;2.07;1.60;;;;;;;8.35;100.00;100737.50;5054560;28;20305;-61
2023/01/04 09:54:54;;;;;;;2.30;2.10;;;;;;;8.30;100.00;100739.34;5032810;28;20192;-61
2023/01/04 09:57:30;;;;;;;3.17;1.80;;;;;;;8.30;100.00;100736.78;5043872;28;20190;-60
2023/01/04 10:00:10;;;;;;;3.43;1.50;;;;;;;8.43;100.00;100726.97;5042114;28;20204;-61
2023/01/04 10:02:48;;;;;;;1.67;1.50;;;;;;;8.59;100.00;100729.84;5005565;28;20221;-61
2023/01/04 10:05:22;;;;;;;3.33;1.50;;;;;;;8.67;100.00;100725.25;5048807;28;20204;-60
2023/01/04 10:07:48;;;;;;;2.53;1.63;;;;;;;8.70;100.00;100732.84;5045727;28;20193;-61
2023/01/04 10:10:16;;;;;;;2.00;1.73;;;;;;;8.80;100.00;100734.19;5022277;28;20177;-61
2023/01/04 10:12:51;;;;;;;1.90;1.40;;;;;;;8.87;100.00;100738.19;5063258;28;20181;-62
2023/01/04 10:15:34;;;;;;;3.57;1.67;;;;;;;8.79;100.00;100739.38;5048185;28;20265;-61
2023/01/04 10:18:18;;;;;;;1.67;1.50;;;;;;;8.67;100.00;100732.94;5049903;28;20189;-61
2023/01/04 10:20:50;;;;;;;2.67;1.63;;;;;;;8.57;100.00;100724.78;5025275;28;20224;-61
2023/01/04 10:23:51;;;;;;;2.63;1.77;;;;;;;8.44;100.00;100726.91;5051216;28;20715;-61
2023/01/04 10:26:26;;;;;;;2.53;1.70;;;;;;;8.63;100.00;100719.41;5006834;28;20672;-61
2023/01/04 10:29:08;;;;;;;3.63;1.70;;;;;;;8.75;100.00;100718.13;5036745;28;20181;-61
2023/01/04 10:31:43;;;;;;;1.97;1.43;;;;;;;8.74;100.00;100716.44;5023602;28;20567;-61
2023/01/04 10:34:22;;;;;;;3.23;1.83;;;;;;;8.70;100.00;100714.91;5022111;28;20185;-61
2023/01/04 10:36:50;;;;;;;1.40;1.30;;;;;;;8.61;100.00;100702.41;5039368;28;20221;-61
2023/01/04 10:39:19;;;;;;;1.53;1.43;;;;;;;8.67;100.00;100700.47;5036384;28;20182;-61
2023/01/04 10:42:05;;;;;;;2.87;1.53;;;;;;;8.74;100.00;100697.66;5026095;28;20238;-62
2023/01/04 10:44:59;;;;;;;2.80;1.60;;;;;;;8.95;100.00;100701.97;5037765;28;20229;-62
2023/01/04 10:47:45;;;;;;;1.80;1.23;;;;;;;8.98;100.00;100690.75;5035275;28;20224;-62
2023/01/04 10:50:21;;;;;;;1.40;1.10;;;;;;;9.02;100.00;100680.31;5022391;28;20543;-63
2023/01/04 10:52:54;;;;;;;1.70;1.37;;;;;;;9.07;100.00;100669.88;5059515;28;20177;-63
2023/01/04 10:55:39;;;;;;;2.83;1.70;;;;;;;9.12;100.00;100670.53;5056190;28;20200;-62
2023/01/04 10:58:15;;;;;;;1.80;1.43;;;;;;;9.10;100.00;100671.50;5033694;28;20660;-61
2023/01/04 11:00:52;;;;;;;1.60;1.50;;;;;;;9.19;100.00;100664.28;5043549;28;20232;-62
2023/01/04 11:03:23;;;;;;;3.07;1.60;;;;;;;9.20;100.00;100668.50;5037070;28;20178;-61
2023/01/04 11:06:01;;;;;;;2.20;1.50;;;;;;;9.08;100.00;100656.16;5037593;28;20182;-61
2023/01/04 11:08:36;;;;;;;3.90;1.67;;;;;;;9.19;100.00;100659.13;5046143;28;20197;-62
2023/01/04 11:11:09;;;;;;;1.67;1.43;;;;;;;9.31;100.00;100664.66;5027412;28;20714;-61
2023/01/04 11:13:35;;;;;;;1.50;1.40;;;;;;;9.10;100.00;100663.78;5034908;28;20675;-62
2023/01/04 11:16:03;;;;;;;3.23;2.00;;;;;;;9.07;100.00;100667.31;5062501;28;20209;-62
2023/01/04 11:18:30;;;;;;;2.10;1.83;;;;;;;9.03;100.00;100666.59;5046134;28;20187;-61
2023/01/04 11:20:56;;;;;;;3.83;2.27;;;;;;;9.06;100.00;100660.50;5038248;28;20240;-62
2023/01/04 11:23:21;;;;;;;2.87;1.77;;;;;;;9.10;100.00;100659.47;5046936;28;20221;-61
2023/01/04 11:25:55;;;;;;;2.47;1.97;;;;;;;9.14;100.00;100648.22;5034870;28;20225;-62
2023/01/04 11:28:56;;;;;;;3.97;1.60;;;;;;;8.99;100.00;100653.94;5042479;28;20210;-62
2023/01/04 11:31:47;;;;;;;3.57;1.67;;;;;;;8.94;100.00;100636.16;5044877;28;20224;-61
2023/01/04 11:34:12;;;;;;;1.90;1.50;;;;;;;8.94;100.00;100628.47;5048475;28;20220;-61
2023/01/04 11:36:41;;;;;;;1.30;1.20;;;;;;;9.09;100.00;100616.78;5032607;28;20219;-61
2023/01/04 11:39:23;;;;;;;3.03;1.30;;;;;;;9.19;100.00;100609.50;5023002;28;20659;-62
2023/01/04 11:42:03;;;;;;;1.60;1.20;;;;;;;9.29;100.00;100607.41;5017717;28;20233;-62
2023/01/04 11:44:33;;;;;;;1.73;1.37;;;;;;;9.46;100.00;100599.00;5034525;28;20196;-61
2023/01/04 11:47:15;;;;;;;2.00;1.40;;;;;;;9.36;100.00;100601.13;5067817;28;20272;-62
2023/01/04 11:49:41;;;;;;;1.43;1.20;;;;;;;9.34;100.00;100616.59;5040543;28;20291;-61
2023/01/04 11:52:29;;;;;;;2.93;1.27;;;;;;;9.18;100.00;100603.56;5039305;28;20221;-62
2023/01/04 11:54:54;;;;;;;2.33;1.10;;;;;;;9.15;100.00;100606.25;5047252;28;20190;-62
2023/01/04 11:57:20;;;;;;;2.20;1.10;;;;;;;9.29;100.00;100594.56;5046076;28;20181;-62
2023/01/04 12:00:07;;;;;;;1.47;1.20;;;;;;;9.15;100.00;100596.00;5034351;28;20190;-61
2023/01/04 12:02:35;;;;;;;1.53;1.30;;;;;;;9.17;100.00;100589.03;4993766;28;20319;-62
2023/01/04 12:05:00;;;;;;;2.37;1.17;;;;;;;9.30;100.00;100591.97;5016672;28;20215;-63
2023/01/04 12:07:29;;;;;;;3.03;1.20;;;;;;;9.50;100.00;100583.41;4997868;28;20244;-62
2023/01/04 12:09:55;;;;;;;1.20;1.10;;;;;;;9.45;100.00;100574.22;4993838;28;20258;-61
2023/01/04 12:12:24;;;;;;;1.53;1.30;;;;;;;9.48;100.00;100572.38;5022491;28;20764;-63
2023/01/04 12:14:49;;;;;;;1.87;1.20;;;;;;;9.48;100.00;100572.38;5034322;28;20210;-62
2023/01/04 12:17:17;;;;;;;3.20;1.40;;;;;;;9.26;100.00;100564.72;5022444;28;21073;-62
2023/01/04 12:19:45;;;;;;;1.67;1.10;;;;;;;9.30;100.00;100561.16;5016517;28;20220;-64
2023/01/04 12:22:23;;;;;;;1.40;1.20;;;;;;;9.31;100.00;100556.84;4998128;28;20284;-63